Terminal Aerodrome Forecast
Issued by NWS

Home | Current Version | Previous Version | Text Only | Print | Product List | Glossary On
Versions: 1 2 3 4 5 6 7 8 9 10 11 12 13 14 15 16 17 18
000
FTUS43 KLSX 271400 AAB
TAFSUS
TAF AMD
KSUS 271453Z 2715/2812 31014KT P6SM SCT022 SCT040
      TEMPO 2715/2716 BKN022
     FM271900 31014G22KT P6SM SCT040
     FM280200 31004KT P6SM SKC=

USA.gov is the U.S. government's official web portal to all federal, state and local government web resources and services.